9

www.moto.it

MX 2017. Herlings e Seewer vincono Gara1 in Germania

9
...

MX 2017. Herlings e Seewer vincono Gara1 in Germania

Herlings si aggiudica la prima manche del GP di Germania 2017. Alle sue spalle Cairoli e Paulin. In MX2 Seewer vince davanti a Jonass e Olsen.

CLASSIFICHE

GARA 1

MXGP - Race 1 - Classification

Pos Nr Rider Nat. Fed. Bike Time laps Diff. First Diff. Prev. Bestlaptime in lap Speed
1 84 Herlings, Jeffrey NED KNMV KTM 35:19.364 19 0:00.000 0:00.000 1:47.199 5 51.7
2 222 Cairoli, Antonio ITA FMI KTM 35:21.236 19 0:01.872 0:01.872 1:48.204 8 51.2
3 21 Paulin, Gautier FRA MCM Husqvarna 35:42.998 19 0:23.634 0:21.762 1:48.587 4 51
4 25 Desalle, Clement BEL FMB Kawasaki 35:44.575 19 0:25.211 0:01.577 1:48.997 8 50.8
5 89 Van Horebeek, Jeremy BEL FMB Yamaha 35:49.340 19 0:29.976 0:04.765 1:49.116 7 50.8
6 259 Coldenhoff, Glenn NED KNMV KTM 35:53.754 19 0:34.390 0:04.414 1:49.244 7 50.7
7 461 Febvre, Romain FRA FFM Yamaha 35:59.303 19 0:39.939 0:05.549 1:49.324 6 50.7
8 99 Anstie, Max GBR ACU Husqvarna 36:06.118 19 0:46.754 0:06.815 1:49.073 8 50.8
9 4 Tonus, Arnaud SUI FMS Yamaha 36:06.439 19 0:47.075 0:00.321 1:49.265 11 50.7
10 12 Nagl, Maximilian GER DMSB Husqvarna 36:16.867 19 0:57.503 0:10.428 1:49.541 7 50.6
11 27 Jasikonis, Arminas LTU LMSF Suzuki 36:25.019 19 1:05.655 0:08.152 1:49.864 10 50.4
12 243 Gajser, Tim SLO AMZS Honda 36:39.146 19 1:19.782 0:14.127 1:50.956 7 49.9
13 7 Leok, Tanel EST EMF Husqvarna 36:44.203 19 1:24.839 0:05.057 1:51.791 4 49.5
14 71 Graulus, Damon BEL FMB Honda 36:46.243 19 1:26.879 0:02.040 1:51.707 5 49.6
15 17 Butron, Jose ESP RFME KTM 36:46.793 19 1:27.429 0:00.550 1:51.888 3 49.5
16 9 de Dycker, Ken BEL FMB Suzuki 36:50.765 19 1:31.401 0:03.972 1:50.911 6 49.9
17 92 Guillod, Valentin SUI FMS Honda 37:08.316 19 1:48.952 0:17.551 1:51.650 6 49.6
18 149 Ullrich, Dennis GER DMSB KTM 37:09.712 19 1:50.348 0:01.396 1:51.925 7 49.5
19 251 Getteman, Jens BEL DMSB Kawasaki 35:22.650 18 1 lap 1 lap 1:53.116 5 49
20 77 Lupino, Alessandro ITA FMI Honda 35:25.341 18 1 lap 0:02.691 1:51.539 5 49.7

MX2 - Grand Prix Race 1 - Classification

Pos Nr Rider Nat. Fed. Bike Time laps Diff. First Diff. Prev. Bestlaptime in lap Speed
1 91 Seewer, Jeremy SUI FMS Suzuki 33:54.226 18 0:00.000 0:00.000 1:48.017 6 51.3
2 41 Jonass, Pauls LAT LAMSF KTM 33:56.563 18 0:02.337 0:02.337 1:48.888 4 50.9
3 19 Olsen, Thomas Kjer DEN DMU Husqvarna 33:57.822 18 0:03.596 0:01.259 1:49.377 6 50.6
4 96 Lawrence, Hunter AUS MA Suzuki 33:58.678 18 0:04.452 0:00.856 1:49.209 6 50.7
5 81 Hsu, Brian GER MAMS Husqvarna 34:17.091 18 0:22.865 0:18.413 1:49.809 6 50.4
6 747 Cervellin, Michele ITA FMI Honda 34:20.857 18 0:26.631 0:03.766 1:50.560 3 50.1
7 189 Bogers, Brian NED KNMV KTM 34:21.980 18 0:27.754 0:01.123 1:50.441 8 50.1
8 29 Jacobi, Henry GER DMSB Husqvarna 34:22.252 18 0:28.026 0:00.272 1:50.673 13 50
9 57 Sanayei, Darian USA AMA Kawasaki 34:26.208 18 0:31.982 0:03.956 1:50.690 10 50
10 33 Lieber, Julien BEL FMB KTM 34:35.629 18 0:41.403 0:09.421 1:49.688 5 50.5
11 98 Vaessen, Bas NED KNMV Suzuki 34:36.258 18 0:42.032 0:00.629 1:50.999 8 49.9
12 61 Prado Garcia, Jorge ESP RFME KTM 34:36.815 18 0:42.589 0:00.557 1:50.336 4 50.2
13 172 Van doninck, Brent BEL FMB Yamaha 34:43.088 18 0:48.862 0:06.273 1:51.605 15 49.6
14 64 Covington, Thomas USA MUL Husqvarna 34:44.720 18 0:50.494 0:01.632 1:51.118 15 49.8
15 919 Watson, Ben GBR ACU KTM 34:48.615 18 0:54.389 0:03.895 1:52.085 17 49.4
16 128 Monticelli, Ivo ITA FMI KTM 35:00.633 18 1:06.407 0:12.018 1:50.531 8 50.1
17 118 Rubini, Stephen FRA FFM Kawasaki 35:01.865 18 1:07.639 0:01.232 1:51.268 8 49.8
18 321 Bernardini, Samuele ITA FMI TM 35:05.794 18 1:11.568 0:03.929 1:50.709 2 50
19 88 van der Vlist, Freek NED KNMV KTM 35:09.708 18 1:15.482 0:03.914 1:53.013 15 49
20 97 Ivanov, Maykal Grisha BUL FRM Honda 35:10.338 18 1:16.112 0:00.630 1:53.113 13 49